createdAt,value
2019-05-12T00:01:32.064Z,12.30
2019-05-12T00:04:02.999Z,12.20
2019-05-12T00:06:33.849Z,12.20
2019-05-12T00:09:08.373Z,12.20
2019-05-12T00:11:38.894Z,12.30
2019-05-12T00:14:09.719Z,12.30
2019-05-12T00:16:40.579Z,12.20
2019-05-12T00:19:11.373Z,12.20
2019-05-12T00:21:42.129Z,12.20
2019-05-12T00:24:13.064Z,12.20
2019-05-12T00:26:44.458Z,12.30
2019-05-12T00:29:15.287Z,12.40
2019-05-12T00:31:47.787Z,12.40
2019-05-12T00:34:18.879Z,12.30
2019-05-12T00:36:49.853Z,12.30
2019-05-12T00:39:20.968Z,12.40
2019-05-12T00:41:52.139Z,12.40
2019-05-12T00:44:23.028Z,12.40
2019-05-12T00:46:54.269Z,12.40
2019-05-12T00:49:25.180Z,12.40
2019-05-12T00:51:56.015Z,12.40
2019-05-12T00:54:28.500Z,12.40
2019-05-12T00:56:59.594Z,12.40
2019-05-12T00:59:30.338Z,12.40
2019-05-12T01:02:01.089Z,12.40
2019-05-12T01:04:31.874Z,12.40
2019-05-12T01:07:02.668Z,12.50
2019-05-12T01:09:33.578Z,12.50
2019-05-12T01:12:04.524Z,12.50
2019-05-12T01:14:35.358Z,12.40
2019-05-12T01:17:08.276Z,12.40
2019-05-12T01:19:40.487Z,12.30
2019-05-12T01:22:11.411Z,12.20
2019-05-12T01:24:42.264Z,12.20
2019-05-12T01:27:13.059Z,12.30
2019-05-12T01:29:44.005Z,12.30
2019-05-12T01:32:29.823Z,12.30
2019-05-12T01:35:00.719Z,12.30
2019-05-12T01:37:31.594Z,12.20
2019-05-12T01:40:02.380Z,12.30
2019-05-12T01:42:33.240Z,12.20
2019-05-12T01:45:03.975Z,12.30
2019-05-12T01:47:34.789Z,12.20
2019-05-12T01:50:08.746Z,12.20
2019-05-12T01:52:38.836Z,12.30
2019-05-12T01:55:10.009Z,12.30
2019-05-12T01:57:40.803Z,12.30
2019-05-12T02:00:12.783Z,12.30
2019-05-12T02:02:43.726Z,12.30
2019-05-12T02:05:14.659Z,12.20
2019-05-12T02:07:58.316Z,12.20
2019-05-12T02:10:29.006Z,12.20
2019-05-12T02:13:00.125Z,12.30
2019-05-12T02:15:31.264Z,12.30
2019-05-12T02:18:02.099Z,12.30
2019-05-12T02:20:33.044Z,12.30
2019-05-12T02:23:03.798Z,12.30
2019-05-12T02:25:34.694Z,12.40
2019-05-12T02:28:05.601Z,12.30
2019-05-12T02:30:40.712Z,12.40
2019-05-12T02:33:08.840Z,12.40
2019-05-12T02:35:39.884Z,12.40
2019-05-12T02:38:10.795Z,12.40
2019-05-12T02:40:44.697Z,12.40
2019-05-12T02:43:15.441Z,12.40
2019-05-12T02:45:46.880Z,12.30
2019-05-12T02:48:17.785Z,12.30
2019-05-12T02:50:48.588Z,12.30
2019-05-12T02:53:19.840Z,12.40
2019-05-12T02:55:59.130Z,12.30
2019-05-12T02:58:34.257Z,12.40
2019-05-12T03:01:05.706Z,12.30
2019-05-12T03:03:38.220Z,12.30
2019-05-12T03:06:09.084Z,12.30
2019-05-12T03:08:40.045Z,12.20
2019-05-12T03:11:10.958Z,12.30
2019-05-12T03:13:44.686Z,12.10
2019-05-12T03:16:15.174Z,12.10
2019-05-12T03:18:46.086Z,12.20
2019-05-12T03:21:17.113Z,12.30
2019-05-12T03:23:47.971Z,12.10
2019-05-12T03:26:18.835Z,12.10
2019-05-12T03:28:49.563Z,12.00
2019-05-12T03:31:29.326Z,11.90
2019-05-12T03:33:59.556Z,11.90
2019-05-12T03:36:31.928Z,11.90
2019-05-12T03:38:57.783Z,12.00
2019-05-12T03:41:28.649Z,11.90
2019-05-12T03:43:59.304Z,11.90
2019-05-12T03:46:30.172Z,11.90
2019-05-12T03:49:24.512Z,11.90
2019-05-12T03:51:54.359Z,11.90
2019-05-12T03:54:25.285Z,11.90
2019-05-12T03:56:56.100Z,11.80
2019-05-12T03:59:26.944Z,11.80
2019-05-12T04:01:57.814Z,11.80
2019-05-12T04:04:28.704Z,11.80
2019-05-12T04:06:59.545Z,11.80
2019-05-12T04:09:30.240Z,11.80
2019-05-12T04:12:00.905Z,11.70
2019-05-12T04:14:34.399Z,11.80
2019-05-12T04:17:04.839Z,11.80
2019-05-12T04:19:35.989Z,11.70
2019-05-12T04:22:06.855Z,11.70
2019-05-12T04:24:37.945Z,11.70
2019-05-12T04:27:08.850Z,11.80
2019-05-12T04:29:39.624Z,11.90
2019-05-12T04:32:10.349Z,11.90
2019-05-12T04:34:44.532Z,11.90
2019-05-12T04:37:14.776Z,11.90
2019-05-12T04:39:45.828Z,12.00
2019-05-12T04:42:16.618Z,12.00
2019-05-12T04:44:47.369Z,12.00
2019-05-12T04:47:18.339Z,12.00
2019-05-12T04:49:49.152Z,12.00
2019-05-12T04:52:20.005Z,12.00
2019-05-12T04:54:50.925Z,12.10
2019-05-12T04:57:21.721Z,12.10
2019-05-12T04:59:54.355Z,12.10
2019-05-12T05:02:25.350Z,12.10
2019-05-12T05:04:56.228Z,12.10
2019-05-12T05:07:27.019Z,12.20
2019-05-12T05:09:57.848Z,12.20
2019-05-12T05:12:28.704Z,12.30
2019-05-12T05:14:59.574Z,12.20
2019-05-12T05:17:30.409Z,12.20
2019-05-12T05:20:01.150Z,12.30
2019-05-12T05:22:33.322Z,12.40
2019-05-12T05:25:04.403Z,12.40
2019-05-12T05:27:35.289Z,12.40
2019-05-12T05:30:06.809Z,12.30
2019-05-12T05:32:37.528Z,12.20
2019-05-12T05:35:08.359Z,12.20
2019-05-12T05:37:41.507Z,12.30
2019-05-12T05:40:14.078Z,12.30
2019-05-12T05:42:44.789Z,12.50
2019-05-12T05:45:22.153Z,12.50
2019-05-12T05:47:49.444Z,12.50
2019-05-12T05:50:25.113Z,12.70
2019-05-12T05:52:54.266Z,12.70
2019-05-12T05:55:25.324Z,12.80
2019-05-12T05:57:59.835Z,12.70
2019-05-12T06:00:29.144Z,12.70
2019-05-12T06:03:00.391Z,12.80
2019-05-12T06:05:31.194Z,12.80
2019-05-12T06:08:03.985Z,12.80
2019-05-12T06:10:36.290Z,12.80
2019-05-12T06:13:07.074Z,12.80
2019-05-12T06:15:40.558Z,12.90
2019-05-12T06:18:13.412Z,12.90
2019-05-12T06:20:43.812Z,13.00
2019-05-12T06:23:15.100Z,13.20
2019-05-12T06:25:51.153Z,13.30
2019-05-12T06:28:18.829Z,13.30
2019-05-12T06:30:50.329Z,13.40
2019-05-12T06:33:22.702Z,13.40
2019-05-12T06:35:54.385Z,13.40
2019-05-12T06:38:25.234Z,13.50
2019-05-12T06:40:55.884Z,13.50
2019-05-12T06:43:29.234Z,13.50
2019-05-12T06:45:59.239Z,13.60
2019-05-12T06:48:30.386Z,13.70
2019-05-12T06:51:01.329Z,13.70
2019-05-12T06:53:33.661Z,13.80
2019-05-12T06:56:09.396Z,13.60
2019-05-12T06:58:37.514Z,13.70
2019-05-12T07:01:10.967Z,13.80
2019-05-12T07:03:41.431Z,13.80
2019-05-12T07:06:18.260Z,13.90
2019-05-12T07:08:44.839Z,14.20
2019-05-12T07:11:15.749Z,14.40
2019-05-12T07:13:46.769Z,14.50
2019-05-12T07:16:23.156Z,14.60
2019-05-12T07:18:51.054Z,14.50
2019-05-12T07:21:24.867Z,14.50
2019-05-12T07:24:00.307Z,14.60
2019-05-12T07:26:29.244Z,14.70
2019-05-12T07:29:00.419Z,14.80
2019-05-12T07:31:33.653Z,14.70
2019-05-12T07:34:07.725Z,14.80
2019-05-12T07:36:38.779Z,14.80
2019-05-12T07:39:10.109Z,14.70
2019-05-12T07:41:50.397Z,14.50
2019-05-12T07:44:15.779Z,14.50
2019-05-12T07:46:49.486Z,14.40
2019-05-12T07:49:22.711Z,14.30
2019-05-12T07:51:54.217Z,14.30
2019-05-12T07:54:29.355Z,14.50
2019-05-12T07:56:57.672Z,14.60
2019-05-12T07:59:38.955Z,14.60
2019-05-12T08:02:03.913Z,14.60
2019-05-12T08:04:39.722Z,14.70
2019-05-12T08:07:07.010Z,14.50
2019-05-12T08:09:38.277Z,14.60
2019-05-12T08:12:19.436Z,14.70
2019-05-12T08:14:43.974Z,14.90
2019-05-12T08:17:19.233Z,15.00
2019-05-12T08:19:47.539Z,15.20
2019-05-12T08:22:18.774Z,15.20
2019-05-12T08:24:53.210Z,15.20
2019-05-12T08:27:23.557Z,15.30
2019-05-12T08:30:00.962Z,15.30
2019-05-12T08:32:27.292Z,15.50
2019-05-12T08:34:58.554Z,15.70
2019-05-12T08:37:29.553Z,15.80
2019-05-12T08:40:04.280Z,15.80
2019-05-12T08:42:34.446Z,15.40
2019-05-12T08:45:08.198Z,15.40
2019-05-12T08:47:38.976Z,15.50
2019-05-12T08:50:10.657Z,15.40
2019-05-12T08:52:44.269Z,15.50
2019-05-12T08:55:16.850Z,15.90
2019-05-12T08:57:49.572Z,16.10
2019-05-12T09:00:47.455Z,16.20
2019-05-12T09:03:14.126Z,16.20
2019-05-12T09:05:45.559Z,16.20
2019-05-12T09:08:16.754Z,16.30
2019-05-12T09:10:48.274Z,16.40
2019-05-12T09:13:19.444Z,16.40
2019-05-12T09:15:50.575Z,16.10
2019-05-12T09:18:23.531Z,16.50
2019-05-12T09:20:55.677Z,16.60
2019-05-12T09:23:26.674Z,16.40
2019-05-12T09:25:57.829Z,16.50
2019-05-12T09:28:28.531Z,16.60
2019-05-12T09:30:59.329Z,16.50
2019-05-12T09:33:32.449Z,15.90
2019-05-12T09:36:04.401Z,15.40
2019-05-12T09:38:35.864Z,15.40
2019-05-12T09:41:06.790Z,15.30
2019-05-12T09:43:40.256Z,15.40
2019-05-12T09:46:10.434Z,15.40
2019-05-12T09:48:46.905Z,15.40
2019-05-12T09:51:16.930Z,15.50
2019-05-12T09:53:50.850Z,15.50
2019-05-12T09:56:18.941Z,15.50
2019-05-12T09:58:59.095Z,15.50
2019-05-12T10:01:24.218Z,15.70
2019-05-12T10:03:55.391Z,15.70
2019-05-12T10:06:26.400Z,15.70
2019-05-12T10:08:57.161Z,15.70
2019-05-12T10:11:27.979Z,16.00
2019-05-12T10:14:00.457Z,16.30
2019-05-12T10:16:33.275Z,16.30
2019-05-12T10:19:04.087Z,16.40
2019-05-12T10:21:36.073Z,16.40
2019-05-12T10:24:07.014Z,16.60
2019-05-12T10:26:41.172Z,16.70
2019-05-12T10:29:18.791Z,16.90
2019-05-12T10:31:44.642Z,16.70
2019-05-12T10:34:24.041Z,17.00
2019-05-12T10:36:54.654Z,17.00
2019-05-12T10:39:25.789Z,17.30
2019-05-12T10:41:57.779Z,17.40
2019-05-12T10:44:30.110Z,17.40
2019-05-12T10:47:04.460Z,17.70
2019-05-12T10:49:35.371Z,17.40
2019-05-12T10:52:06.520Z,17.20
2019-05-12T10:54:37.389Z,17.60
2019-05-12T10:57:08.200Z,17.70
2019-05-12T10:59:46.846Z,17.60
2019-05-12T11:02:13.820Z,17.90
2019-05-12T11:04:44.160Z,18.10
2019-05-12T11:07:15.260Z,18.30
2019-05-12T11:09:46.224Z,18.20
2019-05-12T11:12:19.017Z,18.60
2019-05-12T11:14:49.559Z,18.90
2019-05-12T11:17:20.474Z,19.20
2019-05-12T11:19:53.648Z,19.20
2019-05-12T11:22:24.100Z,18.60
2019-05-12T11:24:55.839Z,18.70
2019-05-12T11:27:26.845Z,18.70
2019-05-12T11:29:59.019Z,19.00
2019-05-12T11:32:34.880Z,19.20
2019-05-12T11:35:04.100Z,19.20
2019-05-12T11:37:35.109Z,19.40
2019-05-12T11:40:06.544Z,19.80
2019-05-12T11:42:37.334Z,19.90
2019-05-12T11:45:08.949Z,20.00
2019-05-12T11:47:39.920Z,19.30
2019-05-12T11:50:13.075Z,18.80
2019-05-12T11:52:46.018Z,18.70
2019-05-12T11:55:15.810Z,18.90
2019-05-12T11:57:46.669Z,19.20
2019-05-12T12:00:19.944Z,19.20
2019-05-12T12:02:50.680Z,18.80
2019-05-12T12:05:23.403Z,18.20
2019-05-12T12:07:56.135Z,18.40
2019-05-12T12:10:29.394Z,18.30
2019-05-12T12:12:58.669Z,18.00
2019-05-12T12:15:30.408Z,17.60
2019-05-12T12:18:04.023Z,17.50
2019-05-12T12:20:33.968Z,17.40
2019-05-12T12:23:10.831Z,17.50
2019-05-12T12:25:37.393Z,17.60
2019-05-12T12:28:08.085Z,17.90
2019-05-12T12:30:38.789Z,18.20
2019-05-12T12:33:09.519Z,18.10
2019-05-12T12:35:40.339Z,18.00
2019-05-12T12:38:11.115Z,17.90
2019-05-12T12:40:43.657Z,18.00
2019-05-12T12:43:14.444Z,18.30
2019-05-12T12:45:56.679Z,18.20
2019-05-12T12:48:29.811Z,18.20
2019-05-12T12:51:00.114Z,18.30
2019-05-12T12:53:30.969Z,18.10
2019-05-12T12:56:04.147Z,18.40
2019-05-12T12:58:34.681Z,19.10
2019-05-12T13:01:06.024Z,19.40
2019-05-12T13:03:36.835Z,19.50
2019-05-12T13:06:07.679Z,19.40
2019-05-12T13:08:38.469Z,19.60
2019-05-12T13:11:09.163Z,19.80
2019-05-12T13:13:39.893Z,20.80
2019-05-12T13:16:10.649Z,21.20
2019-05-12T13:18:43.438Z,21.10
2019-05-12T13:21:14.054Z,22.60
2019-05-12T13:23:45.381Z,22.90
2019-05-12T13:26:16.459Z,22.70
2019-05-12T13:28:53.451Z,21.40
2019-05-12T13:31:19.719Z,21.00
2019-05-12T13:33:54.896Z,20.70
2019-05-12T13:36:24.192Z,20.30
2019-05-12T13:38:55.385Z,20.60
2019-05-12T13:41:26.654Z,20.50
2019-05-12T13:43:59.958Z,19.80
2019-05-12T13:46:30.014Z,19.90
2019-05-12T13:49:03.054Z,19.90
2019-05-12T13:51:33.430Z,20.10
2019-05-12T13:54:04.369Z,20.10
2019-05-12T13:56:35.796Z,19.70
2019-05-12T13:59:06.734Z,20.00
2019-05-12T14:01:40.120Z,19.70
2019-05-12T14:04:10.109Z,19.70
2019-05-12T14:06:40.920Z,20.10
2019-05-12T14:09:13.607Z,19.90
2019-05-12T14:11:44.479Z,19.80
2019-05-12T14:14:15.748Z,19.50
2019-05-12T14:16:57.456Z,19.10
2019-05-12T14:19:19.035Z,19.10
2019-05-12T14:21:49.899Z,18.70
2019-05-12T14:24:20.664Z,18.90
2019-05-12T14:26:53.409Z,19.00
2019-05-12T14:29:26.564Z,18.80
2019-05-12T14:32:02.145Z,18.60
2019-05-12T14:34:29.039Z,18.50
2019-05-12T14:37:06.922Z,18.60
2019-05-12T14:39:34.351Z,18.40
2019-05-12T14:42:04.870Z,18.10
2019-05-12T14:44:43.881Z,17.90
2019-05-12T14:47:08.414Z,17.80
2019-05-12T14:49:39.204Z,17.80
2019-05-12T14:52:09.959Z,17.90
2019-05-12T14:54:40.830Z,18.00
2019-05-12T14:57:13.765Z,18.00
2019-05-12T14:59:44.499Z,17.80
2019-05-12T15:02:19.515Z,17.70
2019-05-12T15:04:47.494Z,17.90
2019-05-12T15:07:18.229Z,17.80
2019-05-12T15:09:53.878Z,17.80
2019-05-12T15:12:21.559Z,18.10
2019-05-12T15:14:54.217Z,18.20
2019-05-12T15:17:24.716Z,18.20
2019-05-12T15:20:00.144Z,18.20
2019-05-12T15:22:27.890Z,18.60
2019-05-12T15:24:59.175Z,19.00
2019-05-12T15:27:42.378Z,19.00
2019-05-12T15:30:04.164Z,18.70
2019-05-12T15:32:35.066Z,18.40
2019-05-12T15:35:05.809Z,17.60
2019-05-12T15:37:39.112Z,17.30
2019-05-12T15:40:10.199Z,17.00
2019-05-12T15:42:41.249Z,17.20
2019-05-12T15:45:16.570Z,16.90
2019-05-12T15:47:45.289Z,17.00
2019-05-12T15:50:16.684Z,17.00
2019-05-12T15:52:47.664Z,17.10
2019-05-12T15:55:18.714Z,17.10
2019-05-12T15:57:50.944Z,17.10
2019-05-12T16:00:24.356Z,17.20
2019-05-12T16:02:54.900Z,17.10
2019-05-12T16:05:30.835Z,17.10
2019-05-12T16:07:58.264Z,17.30
2019-05-12T16:10:29.189Z,17.40
2019-05-12T16:13:00.099Z,17.30
2019-05-12T16:15:30.829Z,17.40
2019-05-12T16:18:08.183Z,17.20
2019-05-12T16:20:34.154Z,17.20
2019-05-12T16:23:05.085Z,17.20
2019-05-12T16:25:35.914Z,17.10
2019-05-12T16:28:07.738Z,17.20
2019-05-12T16:30:39.419Z,17.50
2019-05-12T16:33:14.402Z,17.50
2019-05-12T16:35:44.190Z,17.70
2019-05-12T16:38:19.871Z,17.80
2019-05-12T16:40:49.766Z,17.70
2019-05-12T16:43:20.481Z,17.60
2019-05-12T16:45:53.616Z,17.60
2019-05-12T16:48:30.202Z,17.60
2019-05-12T16:50:56.920Z,17.40
2019-05-12T16:53:28.092Z,17.20
2019-05-12T16:55:58.879Z,16.90
2019-05-12T16:58:32.815Z,17.00
2019-05-12T17:01:03.799Z,16.90
2019-05-12T17:03:34.845Z,16.80
2019-05-12T17:06:05.796Z,16.70
2019-05-12T17:08:36.614Z,16.60
2019-05-12T17:11:23.238Z,16.50
2019-05-12T17:13:39.789Z,16.50
2019-05-12T17:16:10.690Z,16.40
2019-05-12T17:18:44.149Z,16.30
2019-05-12T17:21:14.464Z,16.40
2019-05-12T17:23:45.529Z,16.30
2019-05-12T17:26:16.444Z,16.20
2019-05-12T17:28:47.325Z,16.30
2019-05-12T17:31:18.259Z,16.20
2019-05-12T17:33:48.974Z,16.10
2019-05-12T17:36:19.834Z,16.00
2019-05-12T17:38:51.189Z,15.90
2019-05-12T17:41:23.622Z,15.90
2019-05-12T17:44:00.899Z,15.90
2019-05-12T17:46:26.985Z,15.90
2019-05-12T17:48:57.970Z,15.90
2019-05-12T17:51:30.925Z,15.90
2019-05-12T17:54:06.208Z,15.90
2019-05-12T17:56:38.417Z,16.00
2019-05-12T17:59:06.069Z,16.20
2019-05-12T18:01:37.295Z,16.30
2019-05-12T18:04:08.145Z,16.30
2019-05-12T18:06:38.984Z,16.20
2019-05-12T18:09:15.696Z,16.10
2019-05-12T18:11:46.070Z,16.80
2019-05-12T18:14:15.774Z,17.40
2019-05-12T18:16:46.508Z,17.80
2019-05-12T18:19:19.527Z,17.80
2019-05-12T18:21:54.982Z,17.60
2019-05-12T18:24:24.102Z,17.40
2019-05-12T18:27:00.135Z,16.90
2019-05-12T18:29:27.130Z,16.50
2019-05-12T18:31:58.040Z,16.50
2019-05-12T18:34:28.779Z,17.10
2019-05-12T18:37:00.105Z,17.50
2019-05-12T18:39:31.269Z,16.80
2019-05-12T18:42:03.534Z,16.50
2019-05-12T18:44:34.625Z,16.20
2019-05-12T18:47:05.729Z,15.80
2019-05-12T18:49:36.545Z,15.70
2019-05-12T18:52:07.399Z,15.50
2019-05-12T18:54:45.597Z,15.30
2019-05-12T18:57:10.590Z,15.20
2019-05-12T18:59:46.063Z,15.10
2019-05-12T19:02:22.812Z,14.90
2019-05-12T19:04:46.908Z,14.90
2019-05-12T19:07:17.794Z,14.80
2019-05-12T19:09:49.101Z,14.70
2019-05-12T19:12:22.558Z,14.60
2019-05-12T19:14:54.752Z,14.40
2019-05-12T19:17:25.884Z,14.20
2019-05-12T19:20:00.064Z,14.20
2019-05-12T19:22:29.137Z,14.20
2019-05-12T19:25:00.210Z,14.20
2019-05-12T19:27:31.094Z,14.10
2019-05-12T19:30:04.149Z,14.10
2019-05-12T19:32:36.838Z,14.10
2019-05-12T19:35:09.521Z,14.00
2019-05-12T19:37:42.330Z,14.00
2019-05-12T19:40:14.374Z,14.00
2019-05-12T19:42:44.316Z,14.00
2019-05-12T19:45:21.317Z,14.00
2019-05-12T19:47:49.224Z,14.00
2019-05-12T19:50:20.280Z,14.00
2019-05-12T19:52:51.019Z,14.10
2019-05-12T19:55:24.018Z,14.10
2019-05-12T19:57:54.571Z,14.10
2019-05-12T20:00:25.464Z,14.10
2019-05-12T20:02:56.404Z,14.10
2019-05-12T20:05:27.189Z,13.90
2019-05-12T20:07:58.144Z,13.90
2019-05-12T20:10:29.150Z,13.90
2019-05-12T20:12:59.979Z,13.90
2019-05-12T20:15:36.616Z,13.90
2019-05-12T20:18:04.310Z,13.90
2019-05-12T20:20:40.939Z,13.90
2019-05-12T20:23:07.839Z,14.00
2019-05-12T20:25:38.543Z,13.90
2019-05-12T20:28:11.300Z,14.00
2019-05-12T20:30:43.654Z,14.00
2019-05-12T20:33:14.125Z,14.10
2019-05-12T20:35:49.095Z,14.00
2019-05-12T20:38:17.339Z,14.00
2019-05-12T20:40:48.167Z,14.00
2019-05-12T20:43:23.984Z,14.10
2019-05-12T20:45:51.779Z,14.00
2019-05-12T20:48:26.479Z,13.90
2019-05-12T20:50:55.062Z,13.60
2019-05-12T20:53:31.723Z,13.30
2019-05-12T20:55:58.200Z,13.10
2019-05-12T20:58:35.330Z,13.00
2019-05-12T21:01:02.885Z,13.00
2019-05-12T21:03:33.729Z,13.00
2019-05-12T21:06:04.604Z,13.00
2019-05-12T21:08:35.399Z,13.10
2019-05-12T21:11:06.334Z,13.10
2019-05-12T21:13:37.171Z,13.00
2019-05-12T21:16:16.484Z,13.10
2019-05-12T21:18:50.364Z,13.00
2019-05-12T21:21:15.738Z,13.00
2019-05-12T21:23:53.711Z,13.10
2019-05-12T21:26:19.444Z,13.10
2019-05-12T21:28:53.877Z,13.10
2019-05-12T21:31:28.996Z,13.00
2019-05-12T21:33:59.304Z,13.00
2019-05-12T21:36:30.093Z,13.10
2019-05-12T21:39:08.363Z,13.10
2019-05-12T21:41:34.478Z,13.10
2019-05-12T21:44:10.872Z,13.10
2019-05-12T21:46:38.410Z,13.00
2019-05-12T21:49:12.036Z,13.10
2019-05-12T21:51:44.460Z,13.20
2019-05-12T21:54:14.284Z,13.10
2019-05-12T21:56:49.172Z,13.10
2019-05-12T21:59:17.479Z,13.10
2019-05-12T22:01:49.093Z,13.10
2019-05-12T22:04:19.830Z,13.20
2019-05-12T22:06:51.273Z,13.20
2019-05-12T22:09:23.984Z,13.20
2019-05-12T22:11:56.323Z,13.20
2019-05-12T22:14:30.573Z,13.20
2019-05-12T22:17:01.213Z,13.20
2019-05-12T22:19:37.631Z,13.00
2019-05-12T22:22:04.474Z,13.10
2019-05-12T22:24:38.726Z,13.00
2019-05-12T22:27:07.649Z,12.90
2019-05-12T22:29:38.400Z,13.00
2019-05-12T22:32:09.199Z,12.90
2019-05-12T22:34:41.960Z,12.90
2019-05-12T22:37:13.603Z,12.90
2019-05-12T22:39:44.622Z,12.90
2019-05-12T22:42:20.175Z,12.90
2019-05-12T22:44:53.027Z,12.90
2019-05-12T22:47:20.443Z,12.80
2019-05-12T22:49:55.323Z,12.90
2019-05-12T22:52:24.025Z,13.00
2019-05-12T22:54:54.849Z,13.00
2019-05-12T22:57:29.134Z,12.90
2019-05-12T22:59:57.802Z,13.00
2019-05-12T23:02:30.113Z,12.90
2019-05-12T23:05:03.105Z,13.00
2019-05-12T23:07:33.585Z,12.90
2019-05-12T23:10:06.919Z,13.00
2019-05-12T23:12:37.579Z,13.00
2019-05-12T23:15:08.594Z,12.90
2019-05-12T23:17:45.147Z,12.90
2019-05-12T23:20:13.700Z,12.90
2019-05-12T23:22:44.524Z,13.00
2019-05-12T23:25:20.038Z,12.90
2019-05-12T23:27:47.714Z,13.00
2019-05-12T23:30:18.368Z,13.00
2019-05-12T23:32:51.585Z,13.00
2019-05-12T23:35:21.617Z,13.10
2019-05-12T23:37:53.589Z,13.10
2019-05-12T23:40:24.460Z,13.00
2019-05-12T23:42:55.268Z,13.10
2019-05-12T23:45:26.083Z,13.20
2019-05-12T23:47:56.919Z,13.20
2019-05-12T23:50:27.963Z,13.20
2019-05-12T23:52:58.789Z,13.30
2019-05-12T23:55:29.704Z,13.30
2019-05-12T23:58:00.608Z,13.40
